sensor_id;sensor_type;location;lat;lon;timestamp;temperature;humidity
2202;DHT22;1107;48.654;9.250;2023-05-10T00:01:16;13.80;99.90
2202;DHT22;1107;48.654;9.250;2023-05-10T00:03:43;13.80;99.90
2202;DHT22;1107;48.654;9.250;2023-05-10T00:06:10;13.70;99.90
2202;DHT22;1107;48.654;9.250;2023-05-10T00:08:37;13.80;99.90
2202;DHT22;1107;48.654;9.250;2023-05-10T00:11:06;13.80;99.90
2202;DHT22;1107;48.654;9.250;2023-05-10T00:13:33;13.80;99.90
2202;DHT22;1107;48.654;9.250;2023-05-10T00:16:00;13.90;99.90
2202;DHT22;1107;48.654;9.250;2023-05-10T00:18:27;13.90;99.90
2202;DHT22;1107;48.654;9.250;2023-05-10T00:20:54;13.90;99.90
2202;DHT22;1107;48.654;9.250;2023-05-10T00:23:21;13.90;99.90
2202;DHT22;1107;48.654;9.250;2023-05-10T00:25:48;13.90;99.90
2202;DHT22;1107;48.654;9.250;2023-05-10T00:28:16;13.90;99.90
2202;DHT22;1107;48.654;9.250;2023-05-10T00:30:44;13.90;99.90
2202;DHT22;1107;48.654;9.250;2023-05-10T00:33:11;13.90;99.90
2202;DHT22;1107;48.654;9.250;2023-05-10T00:35:38;13.90;99.90
2202;DHT22;1107;48.654;9.250;2023-05-10T00:38:05;13.80;99.90
2202;DHT22;1107;48.654;9.250;2023-05-10T00:40:32;13.80;99.90
2202;DHT22;1107;48.654;9.250;2023-05-10T00:42:59;13.80;99.90
2202;DHT22;1107;48.654;9.250;2023-05-10T00:45:28;13.80;99.90
2202;DHT22;1107;48.654;9.250;2023-05-10T00:47:56;13.70;99.90
2202;DHT22;1107;48.654;9.250;2023-05-10T00:50:23;13.60;99.90
2202;DHT22;1107;48.654;9.250;2023-05-10T00:52:50;13.50;99.90
2202;DHT22;1107;48.654;9.250;2023-05-10T00:55:18;13.50;99.90
2202;DHT22;1107;48.654;9.250;2023-05-10T00:57:45;13.50;99.90
2202;DHT22;1107;48.654;9.250;2023-05-10T01:00:13;13.40;99.90
2202;DHT22;1107;48.654;9.250;2023-05-10T01:02:45;13.40;99.90
2202;DHT22;1107;48.654;9.250;2023-05-10T01:05:12;13.50;99.90
2202;DHT22;1107;48.654;9.250;2023-05-10T01:07:39;13.50;99.90
2202;DHT22;1107;48.654;9.250;2023-05-10T01:10:07;13.40;99.90
2202;DHT22;1107;48.654;9.250;2023-05-10T01:12:37;13.40;99.90
2202;DHT22;1107;48.654;9.250;2023-05-10T01:15:06;13.40;99.90
2202;DHT22;1107;48.654;9.250;2023-05-10T01:17:34;13.40;99.90
2202;DHT22;1107;48.654;9.250;2023-05-10T01:20:03;13.50;99.90
2202;DHT22;1107;48.654;9.250;2023-05-10T01:32:08;13.50;99.90
2202;DHT22;1107;48.654;9.250;2023-05-10T01:34:42;13.50;99.90
2202;DHT22;1107;48.654;9.250;2023-05-10T01:37:16;13.50;99.90
2202;DHT22;1107;48.654;9.250;2023-05-10T01:39:52;13.50;99.90
2202;DHT22;1107;48.654;9.250;2023-05-10T01:42:23;13.50;99.90
2202;DHT22;1107;48.654;9.250;2023-05-10T01:44:58;13.50;99.90
2202;DHT22;1107;48.654;9.250;2023-05-10T01:47:32;13.40;99.90
2202;DHT22;1107;48.654;9.250;2023-05-10T01:50:04;13.50;99.90
2202;DHT22;1107;48.654;9.250;2023-05-10T01:52:38;13.50;99.90
2202;DHT22;1107;48.654;9.250;2023-05-10T01:55:10;13.40;99.90
2202;DHT22;1107;48.654;9.250;2023-05-10T01:57:39;13.40;99.90
2202;DHT22;1107;48.654;9.250;2023-05-10T02:00:10;13.40;99.90
2202;DHT22;1107;48.654;9.250;2023-05-10T02:02:40;13.40;99.90
2202;DHT22;1107;48.654;9.250;2023-05-10T02:05:09;13.40;99.90
2202;DHT22;1107;48.654;9.250;2023-05-10T02:07:40;13.40;99.90
2202;DHT22;1107;48.654;9.250;2023-05-10T02:10:09;13.30;99.90
2202;DHT22;1107;48.654;9.250;2023-05-10T02:12:41;13.30;99.90
2202;DHT22;1107;48.654;9.250;2023-05-10T02:15:10;13.30;99.90
2202;DHT22;1107;48.654;9.250;2023-05-10T02:17:40;13.30;99.90
2202;DHT22;1107;48.654;9.250;2023-05-10T02:20:09;13.30;99.90
2202;DHT22;1107;48.654;9.250;2023-05-10T02:22:37;13.30;99.90
2202;DHT22;1107;48.654;9.250;2023-05-10T02:25:07;13.20;99.90
2202;DHT22;1107;48.654;9.250;2023-05-10T02:27:35;13.20;99.90
2202;DHT22;1107;48.654;9.250;2023-05-10T02:30:05;13.20;99.90
2202;DHT22;1107;48.654;9.250;2023-05-10T02:32:33;13.20;99.90
2202;DHT22;1107;48.654;9.250;2023-05-10T02:35:03;13.10;99.90
2202;DHT22;1107;48.654;9.250;2023-05-10T02:37:30;13.10;99.90
2202;DHT22;1107;48.654;9.250;2023-05-10T02:39:58;13.10;99.90
2202;DHT22;1107;48.654;9.250;2023-05-10T02:42:27;13.00;99.90
2202;DHT22;1107;48.654;9.250;2023-05-10T02:44:59;13.00;99.90
2202;DHT22;1107;48.654;9.250;2023-05-10T02:47:26;13.00;99.90
2202;DHT22;1107;48.654;9.250;2023-05-10T02:49:53;13.00;99.90
2202;DHT22;1107;48.654;9.250;2023-05-10T02:52:25;13.00;99.90
2202;DHT22;1107;48.654;9.250;2023-05-10T02:54:58;13.00;99.90
2202;DHT22;1107;48.654;9.250;2023-05-10T02:57:29;13.00;99.90
2202;DHT22;1107;48.654;9.250;2023-05-10T02:59:58;13.00;99.90
2202;DHT22;1107;48.654;9.250;2023-05-10T03:02:25;13.00;99.90
2202;DHT22;1107;48.654;9.250;2023-05-10T03:04:53;13.00;99.90
2202;DHT22;1107;48.654;9.250;2023-05-10T03:07:21;13.00;99.90
2202;DHT22;1107;48.654;9.250;2023-05-10T03:09:49;13.00;99.90
2202;DHT22;1107;48.654;9.250;2023-05-10T03:12:26;13.00;99.90
2202;DHT22;1107;48.654;9.250;2023-05-10T03:15:02;13.00;99.90
2202;DHT22;1107;48.654;9.250;2023-05-10T03:17:39;13.00;99.90
2202;DHT22;1107;48.654;9.250;2023-05-10T03:20:10;13.00;99.90
2202;DHT22;1107;48.654;9.250;2023-05-10T03:22:43;13.00;99.90
2202;DHT22;1107;48.654;9.250;2023-05-10T03:25:11;13.00;99.90
2202;DHT22;1107;48.654;9.250;2023-05-10T03:27:40;13.00;99.90
2202;DHT22;1107;48.654;9.250;2023-05-10T03:30:09;13.00;99.90
2202;DHT22;1107;48.654;9.250;2023-05-10T03:32:37;12.90;99.90
2202;DHT22;1107;48.654;9.250;2023-05-10T03:35:07;12.90;99.90
2202;DHT22;1107;48.654;9.250;2023-05-10T03:37:34;12.90;99.90
2202;DHT22;1107;48.654;9.250;2023-05-10T03:40:04;12.90;99.90
2202;DHT22;1107;48.654;9.250;2023-05-10T03:42:31;12.90;99.90
2202;DHT22;1107;48.654;9.250;2023-05-10T03:44:58;12.90;99.90
2202;DHT22;1107;48.654;9.250;2023-05-10T03:47:25;12.90;99.90
2202;DHT22;1107;48.654;9.250;2023-05-10T03:49:52;12.90;99.90
2202;DHT22;1107;48.654;9.250;2023-05-10T03:52:19;13.00;99.90
2202;DHT22;1107;48.654;9.250;2023-05-10T03:54:46;12.90;99.90
2202;DHT22;1107;48.654;9.250;2023-05-10T03:57:14;12.90;99.90
2202;DHT22;1107;48.654;9.250;2023-05-10T03:59:41;12.90;99.90
2202;DHT22;1107;48.654;9.250;2023-05-10T04:02:08;12.90;99.90
2202;DHT22;1107;48.654;9.250;2023-05-10T04:04:35;12.80;99.90
2202;DHT22;1107;48.654;9.250;2023-05-10T04:07:03;12.80;99.90
2202;DHT22;1107;48.654;9.250;2023-05-10T04:09:30;12.80;99.90
2202;DHT22;1107;48.654;9.250;2023-05-10T04:11:58;12.60;99.90
2202;DHT22;1107;48.654;9.250;2023-05-10T04:14:27;12.70;99.90
2202;DHT22;1107;48.654;9.250;2023-05-10T04:16:54;12.60;99.90
2202;DHT22;1107;48.654;9.250;2023-05-10T04:19:21;12.60;99.90
2202;DHT22;1107;48.654;9.250;2023-05-10T04:21:48;12.60;99.90
2202;DHT22;1107;48.654;9.250;2023-05-10T04:24:15;12.60;99.90
2202;DHT22;1107;48.654;9.250;2023-05-10T04:26:42;12.60;99.90
2202;DHT22;1107;48.654;9.250;2023-05-10T04:29:09;12.60;99.90
2202;DHT22;1107;48.654;9.250;2023-05-10T04:31:37;12.60;99.90
2202;DHT22;1107;48.654;9.250;2023-05-10T04:34:05;12.60;99.90
2202;DHT22;1107;48.654;9.250;2023-05-10T04:36:31;12.60;99.90
2202;DHT22;1107;48.654;9.250;2023-05-10T04:39:01;12.70;99.90
2202;DHT22;1107;48.654;9.250;2023-05-10T04:41:28;12.70;99.90
2202;DHT22;1107;48.654;9.250;2023-05-10T04:43:56;12.70;99.90
2202;DHT22;1107;48.654;9.250;2023-05-10T04:46:23;12.70;99.90
2202;DHT22;1107;48.654;9.250;2023-05-10T04:48:51;12.70;99.90
2202;DHT22;1107;48.654;9.250;2023-05-10T04:51:18;12.70;99.90
2202;DHT22;1107;48.654;9.250;2023-05-10T04:53:46;12.70;99.90
2202;DHT22;1107;48.654;9.250;2023-05-10T04:56:12;12.70;99.90
2202;DHT22;1107;48.654;9.250;2023-05-10T04:58:39;12.70;99.90
2202;DHT22;1107;48.654;9.250;2023-05-10T05:01:06;12.80;99.90
2202;DHT22;1107;48.654;9.250;2023-05-10T05:03:34;12.70;99.90
2202;DHT22;1107;48.654;9.250;2023-05-10T05:06:03;12.80;99.90
2202;DHT22;1107;48.654;9.250;2023-05-10T05:08:30;12.80;99.90
2202;DHT22;1107;48.654;9.250;2023-05-10T05:10:57;12.80;99.90
2202;DHT22;1107;48.654;9.250;2023-05-10T05:13:25;12.80;99.90
2202;DHT22;1107;48.654;9.250;2023-05-10T05:15:52;12.80;99.90
2202;DHT22;1107;48.654;9.250;2023-05-10T05:18:19;12.80;99.90
2202;DHT22;1107;48.654;9.250;2023-05-10T05:20:46;12.90;99.90
2202;DHT22;1107;48.654;9.250;2023-05-10T05:23:14;12.90;99.90
2202;DHT22;1107;48.654;9.250;2023-05-10T05:25:41;12.90;99.90
2202;DHT22;1107;48.654;9.250;2023-05-10T05:28:09;12.90;99.90
2202;DHT22;1107;48.654;9.250;2023-05-10T05:30:36;12.90;99.90
2202;DHT22;1107;48.654;9.250;2023-05-10T05:33:03;13.00;99.90
2202;DHT22;1107;48.654;9.250;2023-05-10T05:35:30;13.00;99.90
2202;DHT22;1107;48.654;9.250;2023-05-10T05:37:57;13.00;99.90
2202;DHT22;1107;48.654;9.250;2023-05-10T05:40:26;13.10;99.90
2202;DHT22;1107;48.654;9.250;2023-05-10T05:42:52;13.20;99.90
2202;DHT22;1107;48.654;9.250;2023-05-10T05:45:20;13.30;99.90
2202;DHT22;1107;48.654;9.250;2023-05-10T05:47:47;13.20;99.90
2202;DHT22;1107;48.654;9.250;2023-05-10T05:50:13;13.10;99.90
2202;DHT22;1107;48.654;9.250;2023-05-10T05:52:41;13.20;99.90
2202;DHT22;1107;48.654;9.250;2023-05-10T05:55:08;13.20;99.90
2202;DHT22;1107;48.654;9.250;2023-05-10T05:57:36;13.20;99.90
2202;DHT22;1107;48.654;9.250;2023-05-10T06:00:04;13.20;99.90
2202;DHT22;1107;48.654;9.250;2023-05-10T06:02:31;13.30;99.90
2202;DHT22;1107;48.654;9.250;2023-05-10T06:04:58;13.30;99.90
2202;DHT22;1107;48.654;9.250;2023-05-10T06:07:25;13.30;99.90
2202;DHT22;1107;48.654;9.250;2023-05-10T06:09:53;13.30;99.90
2202;DHT22;1107;48.654;9.250;2023-05-10T06:12:20;13.50;99.90
2202;DHT22;1107;48.654;9.250;2023-05-10T06:14:48;13.50;99.90
2202;DHT22;1107;48.654;9.250;2023-05-10T06:17:15;13.60;99.90
2202;DHT22;1107;48.654;9.250;2023-05-10T06:19:42;13.70;99.90
2202;DHT22;1107;48.654;9.250;2023-05-10T06:22:09;13.70;99.90
2202;DHT22;1107;48.654;9.250;2023-05-10T06:24:36;13.60;99.90
2202;DHT22;1107;48.654;9.250;2023-05-10T06:27:04;13.70;99.90
2202;DHT22;1107;48.654;9.250;2023-05-10T06:29:31;13.70;99.90
2202;DHT22;1107;48.654;9.250;2023-05-10T06:31:59;13.60;99.90
2202;DHT22;1107;48.654;9.250;2023-05-10T06:34:26;13.60;99.90
2202;DHT22;1107;48.654;9.250;2023-05-10T06:36:53;13.60;99.90
2202;DHT22;1107;48.654;9.250;2023-05-10T06:39:20;13.60;99.90
2202;DHT22;1107;48.654;9.250;2023-05-10T06:41:47;13.60;99.90
2202;DHT22;1107;48.654;9.250;2023-05-10T06:44:14;13.60;99.90
2202;DHT22;1107;48.654;9.250;2023-05-10T06:46:41;13.60;99.90
2202;DHT22;1107;48.654;9.250;2023-05-10T06:49:09;13.60;99.90
2202;DHT22;1107;48.654;9.250;2023-05-10T06:51:36;13.60;99.90
2202;DHT22;1107;48.654;9.250;2023-05-10T06:54:03;13.70;99.90
2202;DHT22;1107;48.654;9.250;2023-05-10T06:56:30;13.70;99.90
2202;DHT22;1107;48.654;9.250;2023-05-10T06:58:57;13.70;99.90
2202;DHT22;1107;48.654;9.250;2023-05-10T07:01:24;13.70;99.90
2202;DHT22;1107;48.654;9.250;2023-05-10T07:03:51;13.70;99.90
2202;DHT22;1107;48.654;9.250;2023-05-10T07:06:20;13.70;99.90
2202;DHT22;1107;48.654;9.250;2023-05-10T07:08:47;13.80;99.90
2202;DHT22;1107;48.654;9.250;2023-05-10T07:11:13;13.80;99.90
2202;DHT22;1107;48.654;9.250;2023-05-10T07:13:41;13.70;99.90
2202;DHT22;1107;48.654;9.250;2023-05-10T07:16:10;13.80;99.90
2202;DHT22;1107;48.654;9.250;2023-05-10T07:18:37;14.00;99.90
2202;DHT22;1107;48.654;9.250;2023-05-10T07:21:04;14.10;99.90
2202;DHT22;1107;48.654;9.250;2023-05-10T07:23:32;14.20;99.90
2202;DHT22;1107;48.654;9.250;2023-05-10T07:25:59;14.10;99.90
2202;DHT22;1107;48.654;9.250;2023-05-10T07:28:27;14.20;99.90
2202;DHT22;1107;48.654;9.250;2023-05-10T07:30:55;14.20;99.90
2202;DHT22;1107;48.654;9.250;2023-05-10T07:33:22;14.20;99.90
2202;DHT22;1107;48.654;9.250;2023-05-10T07:35:50;14.10;99.90
2202;DHT22;1107;48.654;9.250;2023-05-10T07:38:17;14.20;99.90
2202;DHT22;1107;48.654;9.250;2023-05-10T07:40:45;14.20;99.90
2202;DHT22;1107;48.654;9.250;2023-05-10T07:43:12;14.20;99.90
2202;DHT22;1107;48.654;9.250;2023-05-10T07:45:39;14.20;99.90
2202;DHT22;1107;48.654;9.250;2023-05-10T07:48:07;14.10;99.90
2202;DHT22;1107;48.654;9.250;2023-05-10T07:50:34;14.20;99.90
2202;DHT22;1107;48.654;9.250;2023-05-10T07:53:01;14.20;99.90
2202;DHT22;1107;48.654;9.250;2023-05-10T07:55:27;14.20;99.90
2202;DHT22;1107;48.654;9.250;2023-05-10T07:57:56;14.20;99.90
2202;DHT22;1107;48.654;9.250;2023-05-10T08:00:23;14.10;99.90
2202;DHT22;1107;48.654;9.250;2023-05-10T08:02:50;14.20;99.90
2202;DHT22;1107;48.654;9.250;2023-05-10T08:05:17;14.20;99.90
2202;DHT22;1107;48.654;9.250;2023-05-10T08:07:44;14.30;99.90
2202;DHT22;1107;48.654;9.250;2023-05-10T08:10:11;14.20;99.90
2202;DHT22;1107;48.654;9.250;2023-05-10T08:12:38;14.10;99.90
2202;DHT22;1107;48.654;9.250;2023-05-10T08:15:08;14.10;99.90
2202;DHT22;1107;48.654;9.250;2023-05-10T08:17:35;14.10;99.90
2202;DHT22;1107;48.654;9.250;2023-05-10T08:20:03;14.10;99.90
2202;DHT22;1107;48.654;9.250;2023-05-10T08:22:30;14.20;99.90
2202;DHT22;1107;48.654;9.250;2023-05-10T08:24:57;14.40;99.90
2202;DHT22;1107;48.654;9.250;2023-05-10T08:27:25;14.60;99.90
2202;DHT22;1107;48.654;9.250;2023-05-10T08:29:52;14.70;99.90
2202;DHT22;1107;48.654;9.250;2023-05-10T08:32:20;14.80;99.90
2202;DHT22;1107;48.654;9.250;2023-05-10T08:34:47;15.00;99.90
2202;DHT22;1107;48.654;9.250;2023-05-10T08:37:14;15.20;99.90
2202;DHT22;1107;48.654;9.250;2023-05-10T08:39:42;15.30;99.90
2202;DHT22;1107;48.654;9.250;2023-05-10T08:42:09;15.40;99.90
2202;DHT22;1107;48.654;9.250;2023-05-10T08:44:36;15.40;99.90
2202;DHT22;1107;48.654;9.250;2023-05-10T08:47:05;15.50;99.90
2202;DHT22;1107;48.654;9.250;2023-05-10T08:49:34;15.60;99.90
2202;DHT22;1107;48.654;9.250;2023-05-10T08:52:03;15.50;99.90
2202;DHT22;1107;48.654;9.250;2023-05-10T08:54:31;15.40;99.90
2202;DHT22;1107;48.654;9.250;2023-05-10T08:56:59;15.40;99.90
2202;DHT22;1107;48.654;9.250;2023-05-10T08:59:27;15.50;99.90
2202;DHT22;1107;48.654;9.250;2023-05-10T09:01:56;15.30;99.90
2202;DHT22;1107;48.654;9.250;2023-05-10T09:04:24;15.60;99.90
2202;DHT22;1107;48.654;9.250;2023-05-10T09:06:53;15.80;99.90
2202;DHT22;1107;48.654;9.250;2023-05-10T09:09:20;16.00;99.90
2202;DHT22;1107;48.654;9.250;2023-05-10T09:11:48;16.30;99.90
2202;DHT22;1107;48.654;9.250;2023-05-10T09:14:15;16.50;99.90
2202;DHT22;1107;48.654;9.250;2023-05-10T09:16:43;16.50;99.90
2202;DHT22;1107;48.654;9.250;2023-05-10T09:19:10;16.70;99.90
2202;DHT22;1107;48.654;9.250;2023-05-10T09:21:37;16.70;99.90
2202;DHT22;1107;48.654;9.250;2023-05-10T09:24:07;16.90;99.90
2202;DHT22;1107;48.654;9.250;2023-05-10T09:26:35;16.90;99.90
2202;DHT22;1107;48.654;9.250;2023-05-10T09:29:03;16.90;99.90
2202;DHT22;1107;48.654;9.250;2023-05-10T09:31:47;17.20;1.00
2202;DHT22;1107;48.654;9.250;2023-05-10T09:34:17;17.30;99.90
2202;DHT22;1107;48.654;9.250;2023-05-10T09:36:54;17.30;99.90
2202;DHT22;1107;48.654;9.250;2023-05-10T09:39:31;17.20;99.90
2202;DHT22;1107;48.654;9.250;2023-05-10T09:42:01;17.10;99.90
2202;DHT22;1107;48.654;9.250;2023-05-10T09:44:29;17.20;99.90
2202;DHT22;1107;48.654;9.250;2023-05-10T09:46:56;17.20;99.90
2202;DHT22;1107;48.654;9.250;2023-05-10T09:49:24;17.30;99.90
2202;DHT22;1107;48.654;9.250;2023-05-10T09:52:01;17.40;99.90
2202;DHT22;1107;48.654;9.250;2023-05-10T09:54:30;17.60;99.90
2202;DHT22;1107;48.654;9.250;2023-05-10T09:56:58;17.50;99.90
2202;DHT22;1107;48.654;9.250;2023-05-10T09:59:25;17.40;99.90
2202;DHT22;1107;48.654;9.250;2023-05-10T10:01:53;17.40;99.90
2202;DHT22;1107;48.654;9.250;2023-05-10T10:04:22;17.20;99.90
2202;DHT22;1107;48.654;9.250;2023-05-10T10:06:59;17.20;99.90
2202;DHT22;1107;48.654;9.250;2023-05-10T10:09:27;17.00;99.90
2202;DHT22;1107;48.654;9.250;2023-05-10T10:11:55;17.10;99.90
2202;DHT22;1107;48.654;9.250;2023-05-10T10:14:23;17.00;99.90
2202;DHT22;1107;48.654;9.250;2023-05-10T10:16:51;17.10;99.90
2202;DHT22;1107;48.654;9.250;2023-05-10T10:19:18;17.30;99.90
2202;DHT22;1107;48.654;9.250;2023-05-10T10:21:46;17.40;99.90
2202;DHT22;1107;48.654;9.250;2023-05-10T10:24:13;17.60;99.90
2202;DHT22;1107;48.654;9.250;2023-05-10T10:26:40;17.80;99.90
2202;DHT22;1107;48.654;9.250;2023-05-10T10:29:19;18.00;99.90
2202;DHT22;1107;48.654;9.250;2023-05-10T10:31:53;17.80;99.90
2202;DHT22;1107;48.654;9.250;2023-05-10T10:34:26;18.00;99.90
2202;DHT22;1107;48.654;9.250;2023-05-10T10:36:55;18.10;99.90
2202;DHT22;1107;48.654;9.250;2023-05-10T10:39:23;18.00;99.90
2202;DHT22;1107;48.654;9.250;2023-05-10T10:41:52;17.70;99.90
2202;DHT22;1107;48.654;9.250;2023-05-10T10:44:44;17.50;99.90
2202;DHT22;1107;48.654;9.250;2023-05-10T10:47:22;17.60;99.90
2202;DHT22;1107;48.654;9.250;2023-05-10T10:49:52;17.60;99.90
2202;DHT22;1107;48.654;9.250;2023-05-10T10:52:31;17.50;99.90
2202;DHT22;1107;48.654;9.250;2023-05-10T10:54:59;17.50;99.90
2202;DHT22;1107;48.654;9.250;2023-05-10T10:57:27;17.50;99.90
2202;DHT22;1107;48.654;9.250;2023-05-10T11:00:22;17.40;99.90
2202;DHT22;1107;48.654;9.250;2023-05-10T11:02:51;17.10;99.90
2202;DHT22;1107;48.654;9.250;2023-05-10T11:05:36;17.00;99.90
2202;DHT22;1107;48.654;9.250;2023-05-10T11:08:09;17.00;99.90
2202;DHT22;1107;48.654;9.250;2023-05-10T11:10:36;17.00;99.90
2202;DHT22;1107;48.654;9.250;2023-05-10T11:13:04;17.00;99.90
2202;DHT22;1107;48.654;9.250;2023-05-10T11:15:34;17.00;99.90
2202;DHT22;1107;48.654;9.250;2023-05-10T11:18:17;16.70;99.90
2202;DHT22;1107;48.654;9.250;2023-05-10T11:20:44;16.10;99.90
2202;DHT22;1107;48.654;9.250;2023-05-10T11:23:16;15.70;99.90
2202;DHT22;1107;48.654;9.250;2023-05-10T11:25:44;15.50;99.90
2202;DHT22;1107;48.654;9.250;2023-05-10T11:28:11;15.20;99.90
2202;DHT22;1107;48.654;9.250;2023-05-10T11:30:41;14.90;1.00
2202;DHT22;1107;48.654;9.250;2023-05-10T11:33:09;14.50;1.00
2202;DHT22;1107;48.654;9.250;2023-05-10T11:35:40;14.20;1.00
2202;DHT22;1107;48.654;9.250;2023-05-10T11:38:07;14.00;1.00
2202;DHT22;1107;48.654;9.250;2023-05-10T11:40:34;13.80;99.90
2202;DHT22;1107;48.654;9.250;2023-05-10T11:43:02;13.80;1.00
2202;DHT22;1107;48.654;9.250;2023-05-10T11:45:31;13.90;1.00
2202;DHT22;1107;48.654;9.250;2023-05-10T11:48:00;13.90;1.00
2202;DHT22;1107;48.654;9.250;2023-05-10T11:50:27;14.00;1.00
2202;DHT22;1107;48.654;9.250;2023-05-10T11:52:55;14.00;1.00
2202;DHT22;1107;48.654;9.250;2023-05-10T11:55:24;14.10;1.00
2202;DHT22;1107;48.654;9.250;2023-05-10T11:57:52;14.20;1.00
2202;DHT22;1107;48.654;9.250;2023-05-10T12:00:19;14.30;1.00
2202;DHT22;1107;48.654;9.250;2023-05-10T12:02:46;14.30;99.90
2202;DHT22;1107;48.654;9.250;2023-05-10T12:05:15;14.50;1.00
2202;DHT22;1107;48.654;9.250;2023-05-10T12:07:42;14.50;1.00
2202;DHT22;1107;48.654;9.250;2023-05-10T12:10:10;14.60;1.00
2202;DHT22;1107;48.654;9.250;2023-05-10T12:12:40;14.90;99.90
2202;DHT22;1107;48.654;9.250;2023-05-10T12:15:12;15.10;99.90
2202;DHT22;1107;48.654;9.250;2023-05-10T12:17:39;15.30;1.00
2202;DHT22;1107;48.654;9.250;2023-05-10T12:20:19;15.60;87.90
2202;DHT22;1107;48.654;9.250;2023-05-10T12:22:47;15.80;99.90
2202;DHT22;1107;48.654;9.250;2023-05-10T12:25:15;15.80;99.90
2202;DHT22;1107;48.654;9.250;2023-05-10T12:27:48;16.00;99.90
2202;DHT22;1107;48.654;9.250;2023-05-10T12:30:20;15.80;99.90
2202;DHT22;1107;48.654;9.250;2023-05-10T12:32:47;15.80;99.90
2202;DHT22;1107;48.654;9.250;2023-05-10T12:35:14;15.50;99.90
2202;DHT22;1107;48.654;9.250;2023-05-10T12:37:43;15.40;99.90
2202;DHT22;1107;48.654;9.250;2023-05-10T12:40:11;15.30;99.90
2202;DHT22;1107;48.654;9.250;2023-05-10T12:42:39;15.20;99.90
2202;DHT22;1107;48.654;9.250;2023-05-10T12:45:08;15.20;99.90
2202;DHT22;1107;48.654;9.250;2023-05-10T12:47:35;15.20;99.90
2202;DHT22;1107;48.654;9.250;2023-05-10T12:50:02;15.20;99.90
2202;DHT22;1107;48.654;9.250;2023-05-10T12:52:30;15.30;99.90
2202;DHT22;1107;48.654;9.250;2023-05-10T12:54:59;15.40;99.90
2202;DHT22;1107;48.654;9.250;2023-05-10T12:57:26;15.60;99.90
2202;DHT22;1107;48.654;9.250;2023-05-10T12:59:54;15.50;99.90
2202;DHT22;1107;48.654;9.250;2023-05-10T13:02:21;15.50;99.90
2202;DHT22;1107;48.654;9.250;2023-05-10T13:04:49;15.60;99.90
2202;DHT22;1107;48.654;9.250;2023-05-10T13:07:15;15.80;99.90
2202;DHT22;1107;48.654;9.250;2023-05-10T13:09:42;16.00;99.90
2202;DHT22;1107;48.654;9.250;2023-05-10T13:12:11;16.20;99.90
2202;DHT22;1107;48.654;9.250;2023-05-10T13:14:38;16.40;99.90
2202;DHT22;1107;48.654;9.250;2023-05-10T13:17:06;16.60;99.90
2202;DHT22;1107;48.654;9.250;2023-05-10T13:19:33;16.60;99.90
2202;DHT22;1107;48.654;9.250;2023-05-10T13:22:00;16.60;99.90
2202;DHT22;1107;48.654;9.250;2023-05-10T13:24:27;16.80;99.90
2202;DHT22;1107;48.654;9.250;2023-05-10T13:26:54;16.90;99.90
2202;DHT22;1107;48.654;9.250;2023-05-10T13:29:22;17.10;99.90
2202;DHT22;1107;48.654;9.250;2023-05-10T13:31:49;17.00;99.90
2202;DHT22;1107;48.654;9.250;2023-05-10T13:34:16;16.80;99.90
2202;DHT22;1107;48.654;9.250;2023-05-10T13:36:46;17.00;99.90
2202;DHT22;1107;48.654;9.250;2023-05-10T13:39:13;17.20;99.90
2202;DHT22;1107;48.654;9.250;2023-05-10T13:41:39;17.20;99.90
2202;DHT22;1107;48.654;9.250;2023-05-10T13:44:06;17.00;99.90
2202;DHT22;1107;48.654;9.250;2023-05-10T13:46:35;17.30;99.90
2202;DHT22;1107;48.654;9.250;2023-05-10T13:49:03;17.30;99.90
2202;DHT22;1107;48.654;9.250;2023-05-10T13:51:30;17.20;99.90
2202;DHT22;1107;48.654;9.250;2023-05-10T13:53:57;17.20;99.90
2202;DHT22;1107;48.654;9.250;2023-05-10T13:56:24;16.80;99.90
2202;DHT22;1107;48.654;9.250;2023-05-10T13:58:51;16.90;99.90
2202;DHT22;1107;48.654;9.250;2023-05-10T14:01:18;16.90;99.90
2202;DHT22;1107;48.654;9.250;2023-05-10T14:03:47;16.70;99.90
2202;DHT22;1107;48.654;9.250;2023-05-10T14:06:14;16.90;99.90
2202;DHT22;1107;48.654;9.250;2023-05-10T14:08:41;16.90;99.90
2202;DHT22;1107;48.654;9.250;2023-05-10T14:11:07;16.80;99.90
2202;DHT22;1107;48.654;9.250;2023-05-10T14:13:34;16.80;99.90
2202;DHT22;1107;48.654;9.250;2023-05-10T14:16:02;16.90;99.90
2202;DHT22;1107;48.654;9.250;2023-05-10T14:18:29;17.00;99.90
2202;DHT22;1107;48.654;9.250;2023-05-10T14:20:57;16.90;99.90
2202;DHT22;1107;48.654;9.250;2023-05-10T14:23:24;17.00;99.90
2202;DHT22;1107;48.654;9.250;2023-05-10T14:25:51;17.00;99.90
2202;DHT22;1107;48.654;9.250;2023-05-10T14:28:18;16.90;99.90
2202;DHT22;1107;48.654;9.250;2023-05-10T14:30:46;16.80;99.90
2202;DHT22;1107;48.654;9.250;2023-05-10T14:33:13;16.80;99.90
2202;DHT22;1107;48.654;9.250;2023-05-10T14:35:40;16.90;99.90
2202;DHT22;1107;48.654;9.250;2023-05-10T14:38:08;16.80;99.90
2202;DHT22;1107;48.654;9.250;2023-05-10T14:40:36;16.90;99.90
2202;DHT22;1107;48.654;9.250;2023-05-10T14:43:03;17.00;99.90
2202;DHT22;1107;48.654;9.250;2023-05-10T14:45:30;16.90;99.90
2202;DHT22;1107;48.654;9.250;2023-05-10T14:47:57;16.80;99.90
2202;DHT22;1107;48.654;9.250;2023-05-10T14:50:24;16.80;99.90
2202;DHT22;1107;48.654;9.250;2023-05-10T14:52:51;16.90;99.90
2202;DHT22;1107;48.654;9.250;2023-05-10T14:55:19;17.00;99.90
2202;DHT22;1107;48.654;9.250;2023-05-10T14:57:46;17.10;99.90
2202;DHT22;1107;48.654;9.250;2023-05-10T15:00:16;17.20;99.90
2202;DHT22;1107;48.654;9.250;2023-05-10T15:02:44;17.20;99.90
2202;DHT22;1107;48.654;9.250;2023-05-10T15:05:13;17.20;99.90
2202;DHT22;1107;48.654;9.250;2023-05-10T15:07:40;17.20;99.90
2202;DHT22;1107;48.654;9.250;2023-05-10T15:10:09;17.10;99.90
2202;DHT22;1107;48.654;9.250;2023-05-10T15:12:38;17.10;99.90
2202;DHT22;1107;48.654;9.250;2023-05-10T15:15:07;17.20;99.90
2202;DHT22;1107;48.654;9.250;2023-05-10T15:17:34;17.30;99.90
2202;DHT22;1107;48.654;9.250;2023-05-10T15:20:01;17.20;99.90
2202;DHT22;1107;48.654;9.250;2023-05-10T15:22:29;17.20;99.90
2202;DHT22;1107;48.654;9.250;2023-05-10T15:24:57;17.40;99.90
2202;DHT22;1107;48.654;9.250;2023-05-10T15:27:24;17.50;99.90
2202;DHT22;1107;48.654;9.250;2023-05-10T15:29:52;17.50;99.90
2202;DHT22;1107;48.654;9.250;2023-05-10T15:32:19;17.60;99.90
2202;DHT22;1107;48.654;9.250;2023-05-10T15:34:46;17.70;99.90
2202;DHT22;1107;48.654;9.250;2023-05-10T15:37:13;17.70;99.90
2202;DHT22;1107;48.654;9.250;2023-05-10T15:39:40;17.70;99.90
2202;DHT22;1107;48.654;9.250;2023-05-10T15:42:07;17.60;99.90
2202;DHT22;1107;48.654;9.250;2023-05-10T15:44:34;17.40;99.90
2202;DHT22;1107;48.654;9.250;2023-05-10T15:47:05;17.40;99.90
2202;DHT22;1107;48.654;9.250;2023-05-10T15:49:32;17.40;99.90
2202;DHT22;1107;48.654;9.250;2023-05-10T15:51:59;17.20;99.90
2202;DHT22;1107;48.654;9.250;2023-05-10T15:54:26;17.10;99.90
2202;DHT22;1107;48.654;9.250;2023-05-10T15:56:53;16.90;99.90
2202;DHT22;1107;48.654;9.250;2023-05-10T15:59:20;16.80;99.90
2202;DHT22;1107;48.654;9.250;2023-05-10T16:01:47;16.80;99.90
2202;DHT22;1107;48.654;9.250;2023-05-10T16:04:16;16.70;99.90
2202;DHT22;1107;48.654;9.250;2023-05-10T16:06:43;16.60;99.90
2202;DHT22;1107;48.654;9.250;2023-05-10T16:09:10;16.50;99.90
2202;DHT22;1107;48.654;9.250;2023-05-10T16:11:37;16.50;99.90
2202;DHT22;1107;48.654;9.250;2023-05-10T16:14:04;16.50;99.90
2202;DHT22;1107;48.654;9.250;2023-05-10T16:16:31;16.30;99.90
2202;DHT22;1107;48.654;9.250;2023-05-10T16:18:58;16.30;99.90